Portada
METAR-TAF:

METAR-TAF

Aeropuertos :

Aeropuerto Internacional Daniel Oduber

Liberia, Costa Rica

latitud: 10-37N, longitud: 085-26W, altitud: 80 m

Observación

El informe se hizo hace 15 minutos, a las 02:00 UTC
Viento 15 kt del este-noreste
Temperatura 28°C
Humedad 62%
Presión 1009 hPa
Visibilidad 10 km o más
sin nubes por debajo de 1500 m y sin presencia de cumulonimbus.

METAR: MRLB 270200Z 07015KT CAVOK 28/20 A2980 NOSIG

Hora: 20:15 (02:15 UTC)

Pronóstico

El informe se hizo hace 3 horas y 15 minutos, a las 23:00 UTC
Pronóstico válido del 27 a las 00 UTC al 27 a las 24 UTC
Viento 17 kt del este
Visibilidad 10 km o más
Escasas nubes a una altura de 4000 ft
Temporalmente
del 27 a las 10 UTC al 27 a las 15 UTC
Viento 5 kt del este-noreste
Temporalmente
del 27 a las 18 UTC al 27 a las 24 UTC
Cielo nuboso a una altura de 4000 ft
lluvia

TAF: MRLB 262300Z 2700/2724 09017KT 9999 FEW040 TX34/2719Z TN23/2711Z TEMPO 2710/2715 06005KT TEMPO 2718/2724 RA BKN040

Observaciones y pronósticos meteorológicos de más de 4000 aeropuertos (mensajes METAR y TAF).

Los puntos amarillos y rojos representan las estaciones disponibles.

Ponga el ratón en el punto deseado para ver el nombre de la estación.

Haga clic para ver las observaciones y los pronósticos meteorológicos.

Para cambiar el mapa : haga clic en los botones verdes con una cruz de color negro para hacer un zoom, en el botón verde con un guión para alejar o en las flechas verdes para mapas adyacentes.


METAR-TAF: